sensor_id;sensor_type;location;lat;lon;timestamp;pressure;altitude;pressure_sealevel;temperature
38114;BMP180;23926;53.222;6.354;2023-02-28T00:00:07;103033.00;;;7.30
38114;BMP180;23926;53.222;6.354;2023-02-28T00:02:43;103054.00;;;7.30
38114;BMP180;23926;53.222;6.354;2023-02-28T00:05:11;103055.00;;;7.30
38114;BMP180;23926;53.222;6.354;2023-02-28T00:07:37;103047.00;;;7.40
38114;BMP180;23926;53.222;6.354;2023-02-28T00:10:04;103043.00;;;7.40
38114;BMP180;23926;53.222;6.354;2023-02-28T00:12:31;103045.00;;;7.40
38114;BMP180;23926;53.222;6.354;2023-02-28T00:14:57;103047.00;;;7.30
38114;BMP180;23926;53.222;6.354;2023-02-28T00:17:22;103034.00;;;7.40
38114;BMP180;23926;53.222;6.354;2023-02-28T00:19:48;103008.00;;;7.40
38114;BMP180;23926;53.222;6.354;2023-02-28T00:22:16;103037.00;;;7.40
38114;BMP180;23926;53.222;6.354;2023-02-28T00:24:42;103048.00;;;7.40
38114;BMP180;23926;53.222;6.354;2023-02-28T00:27:07;103035.00;;;7.50
38114;BMP180;23926;53.222;6.354;2023-02-28T00:29:33;103046.00;;;7.50
38114;BMP180;23926;53.222;6.354;2023-02-28T00:31:59;103034.00;;;7.50
38114;BMP180;23926;53.222;6.354;2023-02-28T00:34:24;103048.00;;;7.40
38114;BMP180;23926;53.222;6.354;2023-02-28T00:36:50;103047.00;;;7.40
38114;BMP180;23926;53.222;6.354;2023-02-28T00:39:16;103015.00;;;7.40
38114;BMP180;23926;53.222;6.354;2023-02-28T00:41:41;103026.00;;;7.40
38114;BMP180;23926;53.222;6.354;2023-02-28T00:44:07;103020.00;;;7.40
38114;BMP180;23926;53.222;6.354;2023-02-28T00:46:32;103029.00;;;7.10
38114;BMP180;23926;53.222;6.354;2023-02-28T00:48:58;103039.00;;;7.30
38114;BMP180;23926;53.222;6.354;2023-02-28T00:51:23;103054.00;;;7.30
38114;BMP180;23926;53.222;6.354;2023-02-28T00:53:49;103024.00;;;7.30
38114;BMP180;23926;53.222;6.354;2023-02-28T00:56:14;103035.00;;;7.50
38114;BMP180;23926;53.222;6.354;2023-02-28T00:58:40;103039.00;;;7.50
38114;BMP180;23926;53.222;6.354;2023-02-28T01:01:05;103042.00;;;7.40
38114;BMP180;23926;53.222;6.354;2023-02-28T01:03:31;103038.00;;;7.30
38114;BMP180;23926;53.222;6.354;2023-02-28T01:05:57;103030.00;;;7.40
38114;BMP180;23926;53.222;6.354;2023-02-28T01:08:22;103013.00;;;7.40
38114;BMP180;23926;53.222;6.354;2023-02-28T01:10:48;103030.00;;;7.30
38114;BMP180;23926;53.222;6.354;2023-02-28T01:13:15;103019.00;;;7.30
38114;BMP180;23926;53.222;6.354;2023-02-28T01:15:43;102982.00;;;7.30
38114;BMP180;23926;53.222;6.354;2023-02-28T01:18:10;103018.00;;;7.20
38114;BMP180;23926;53.222;6.354;2023-02-28T01:20:37;103026.00;;;7.30
38114;BMP180;23926;53.222;6.354;2023-02-28T01:23:02;103011.00;;;7.30
38114;BMP180;23926;53.222;6.354;2023-02-28T01:25:28;103025.00;;;7.30
38114;BMP180;23926;53.222;6.354;2023-02-28T01:27:53;102961.00;;;7.30
38114;BMP180;23926;53.222;6.354;2023-02-28T01:30:19;103003.00;;;7.40
38114;BMP180;23926;53.222;6.354;2023-02-28T01:32:54;103008.00;;;7.30
38114;BMP180;23926;53.222;6.354;2023-02-28T01:35:19;103016.00;;;7.30
38114;BMP180;23926;53.222;6.354;2023-02-28T01:37:45;102993.00;;;7.30
38114;BMP180;23926;53.222;6.354;2023-02-28T01:40:11;103016.00;;;7.40
38114;BMP180;23926;53.222;6.354;2023-02-28T01:42:37;103004.00;;;7.40
38114;BMP180;23926;53.222;6.354;2023-02-28T01:47:38;102995.00;;;7.40
38114;BMP180;23926;53.222;6.354;2023-02-28T01:50:08;103006.00;;;7.40
38114;BMP180;23926;53.222;6.354;2023-02-28T01:52:35;103011.00;;;7.30
38114;BMP180;23926;53.222;6.354;2023-02-28T01:55:02;103009.00;;;7.40
38114;BMP180;23926;53.222;6.354;2023-02-28T01:57:34;103009.00;;;7.40
38114;BMP180;23926;53.222;6.354;2023-02-28T02:00:12;102989.00;;;7.30
38114;BMP180;23926;53.222;6.354;2023-02-28T02:02:41;102985.00;;;7.30
38114;BMP180;23926;53.222;6.354;2023-02-28T02:05:22;102997.00;;;7.30
38114;BMP180;23926;53.222;6.354;2023-02-28T02:07:50;102990.00;;;7.20
38114;BMP180;23926;53.222;6.354;2023-02-28T02:10:19;102988.00;;;7.30
38114;BMP180;23926;53.222;6.354;2023-02-28T02:24:52;102971.00;;;7.30
38114;BMP180;23926;53.222;6.354;2023-02-28T02:35:15;102965.00;;;7.20
38114;BMP180;23926;53.222;6.354;2023-02-28T02:37:48;102966.00;;;7.20
38114;BMP180;23926;53.222;6.354;2023-02-28T02:42:59;102973.00;;;7.30
38114;BMP180;23926;53.222;6.354;2023-02-28T02:48:02;102968.00;;;7.40
38114;BMP180;23926;53.222;6.354;2023-02-28T02:50:36;102969.00;;;7.30
38114;BMP180;23926;53.222;6.354;2023-02-28T02:53:04;102968.00;;;7.40
38114;BMP180;23926;53.222;6.354;2023-02-28T02:55:34;102965.00;;;7.40
38114;BMP180;23926;53.222;6.354;2023-02-28T02:58:03;102959.00;;;7.40
38114;BMP180;23926;53.222;6.354;2023-02-28T03:00:34;102952.00;;;7.40
38114;BMP180;23926;53.222;6.354;2023-02-28T03:03:01;102972.00;;;7.30
38114;BMP180;23926;53.222;6.354;2023-02-28T03:05:34;102966.00;;;7.30
38114;BMP180;23926;53.222;6.354;2023-02-28T03:08:03;102962.00;;;7.50
38114;BMP180;23926;53.222;6.354;2023-02-28T03:10:41;102975.00;;;7.50
38114;BMP180;23926;53.222;6.354;2023-02-28T03:27:03;102948.00;;;7.60
38114;BMP180;23926;53.222;6.354;2023-02-28T03:29:39;102953.00;;;7.70
38114;BMP180;23926;53.222;6.354;2023-02-28T03:32:17;102957.00;;;7.80
38114;BMP180;23926;53.222;6.354;2023-02-28T03:34:54;102959.00;;;7.70
38114;BMP180;23926;53.222;6.354;2023-02-28T03:37:23;102970.00;;;7.80
38114;BMP180;23926;53.222;6.354;2023-02-28T03:40:23;102969.00;;;7.90
38114;BMP180;23926;53.222;6.354;2023-02-28T03:42:54;102950.00;;;7.80
38114;BMP180;23926;53.222;6.354;2023-02-28T03:45:29;102965.00;;;7.80
38114;BMP180;23926;53.222;6.354;2023-02-28T03:48:07;102945.00;;;7.80
38114;BMP180;23926;53.222;6.354;2023-02-28T03:50:38;102925.00;;;7.80
38114;BMP180;23926;53.222;6.354;2023-02-28T03:58:35;102965.00;;;7.90
38114;BMP180;23926;53.222;6.354;2023-02-28T04:01:16;102922.00;;;7.80
38114;BMP180;23926;53.222;6.354;2023-02-28T04:03:42;102922.00;;;7.80
38114;BMP180;23926;53.222;6.354;2023-02-28T04:06:15;102928.00;;;7.80
38114;BMP180;23926;53.222;6.354;2023-02-28T04:08:41;102967.00;;;7.80
38114;BMP180;23926;53.222;6.354;2023-02-28T04:13:38;102979.00;;;8.10
38114;BMP180;23926;53.222;6.354;2023-02-28T04:16:07;102974.00;;;8.00
38114;BMP180;23926;53.222;6.354;2023-02-28T04:18:41;102985.00;;;8.00
38114;BMP180;23926;53.222;6.354;2023-02-28T04:21:08;102961.00;;;8.00
38114;BMP180;23926;53.222;6.354;2023-02-28T04:23:34;102975.00;;;8.00
38114;BMP180;23926;53.222;6.354;2023-02-28T04:25:59;102980.00;;;8.00
38114;BMP180;23926;53.222;6.354;2023-02-28T04:28:25;102960.00;;;8.00
38114;BMP180;23926;53.222;6.354;2023-02-28T04:31:08;102968.00;;;8.00
38114;BMP180;23926;53.222;6.354;2023-02-28T04:33:34;102985.00;;;8.00
38114;BMP180;23926;53.222;6.354;2023-02-28T04:36:06;102979.00;;;8.00
38114;BMP180;23926;53.222;6.354;2023-02-28T04:38:35;102944.00;;;7.90
38114;BMP180;23926;53.222;6.354;2023-02-28T04:41:00;102975.00;;;8.10
38114;BMP180;23926;53.222;6.354;2023-02-28T04:43:27;102965.00;;;8.20
38114;BMP180;23926;53.222;6.354;2023-02-28T04:45:54;102987.00;;;8.00
38114;BMP180;23926;53.222;6.354;2023-02-28T04:48:23;102978.00;;;8.20
38114;BMP180;23926;53.222;6.354;2023-02-28T04:50:49;102995.00;;;8.10
38114;BMP180;23926;53.222;6.354;2023-02-28T04:53:14;103004.00;;;8.20
38114;BMP180;23926;53.222;6.354;2023-02-28T04:55:39;102981.00;;;8.00
38114;BMP180;23926;53.222;6.354;2023-02-28T04:58:05;102959.00;;;8.00
38114;BMP180;23926;53.222;6.354;2023-02-28T05:00:31;103001.00;;;8.00
38114;BMP180;23926;53.222;6.354;2023-02-28T05:02:56;102983.00;;;7.90
38114;BMP180;23926;53.222;6.354;2023-02-28T05:05:22;102996.00;;;7.90
38114;BMP180;23926;53.222;6.354;2023-02-28T05:07:47;102982.00;;;8.00
38114;BMP180;23926;53.222;6.354;2023-02-28T05:10:12;102984.00;;;7.90
38114;BMP180;23926;53.222;6.354;2023-02-28T05:12:38;102978.00;;;7.90
38114;BMP180;23926;53.222;6.354;2023-02-28T05:15:04;102965.00;;;7.90
38114;BMP180;23926;53.222;6.354;2023-02-28T05:17:30;102978.00;;;7.90
38114;BMP180;23926;53.222;6.354;2023-02-28T05:19:56;102973.00;;;7.90
38114;BMP180;23926;53.222;6.354;2023-02-28T05:22:21;102974.00;;;7.80
38114;BMP180;23926;53.222;6.354;2023-02-28T05:24:47;102984.00;;;7.70
38114;BMP180;23926;53.222;6.354;2023-02-28T05:27:12;102975.00;;;7.60
38114;BMP180;23926;53.222;6.354;2023-02-28T05:29:38;102967.00;;;7.60
38114;BMP180;23926;53.222;6.354;2023-02-28T05:32:11;102984.00;;;7.50
38114;BMP180;23926;53.222;6.354;2023-02-28T05:34:38;102969.00;;;7.50
38114;BMP180;23926;53.222;6.354;2023-02-28T05:37:04;102971.00;;;7.50
38114;BMP180;23926;53.222;6.354;2023-02-28T05:39:29;102974.00;;;7.40
38114;BMP180;23926;53.222;6.354;2023-02-28T05:41:55;102986.00;;;7.50
38114;BMP180;23926;53.222;6.354;2023-02-28T05:44:20;102992.00;;;7.40
38114;BMP180;23926;53.222;6.354;2023-02-28T05:46:46;102986.00;;;7.40
38114;BMP180;23926;53.222;6.354;2023-02-28T05:49:11;102988.00;;;7.40
38114;BMP180;23926;53.222;6.354;2023-02-28T05:51:37;103001.00;;;7.40
38114;BMP180;23926;53.222;6.354;2023-02-28T05:54:05;102959.00;;;7.30
38114;BMP180;23926;53.222;6.354;2023-02-28T05:56:31;103000.00;;;7.40
38114;BMP180;23926;53.222;6.354;2023-02-28T05:58:57;102987.00;;;7.40
38114;BMP180;23926;53.222;6.354;2023-02-28T06:01:35;103002.00;;;7.50
38114;BMP180;23926;53.222;6.354;2023-02-28T06:04:01;103006.00;;;7.40
38114;BMP180;23926;53.222;6.354;2023-02-28T06:06:28;102995.00;;;7.30
38114;BMP180;23926;53.222;6.354;2023-02-28T06:08:55;102997.00;;;7.30
38114;BMP180;23926;53.222;6.354;2023-02-28T06:11:20;103002.00;;;7.30
38114;BMP180;23926;53.222;6.354;2023-02-28T06:13:46;102964.00;;;7.20
38114;BMP180;23926;53.222;6.354;2023-02-28T06:16:12;103005.00;;;7.30
38114;BMP180;23926;53.222;6.354;2023-02-28T06:18:38;103001.00;;;7.30
38114;BMP180;23926;53.222;6.354;2023-02-28T06:21:04;103004.00;;;7.30
38114;BMP180;23926;53.222;6.354;2023-02-28T06:23:30;102999.00;;;7.30
38114;BMP180;23926;53.222;6.354;2023-02-28T06:25:55;103005.00;;;7.20
38114;BMP180;23926;53.222;6.354;2023-02-28T06:28:24;103011.00;;;7.30
38114;BMP180;23926;53.222;6.354;2023-02-28T06:30:50;103014.00;;;7.20
38114;BMP180;23926;53.222;6.354;2023-02-28T06:33:15;103008.00;;;7.10
38114;BMP180;23926;53.222;6.354;2023-02-28T06:35:44;103020.00;;;7.10
38114;BMP180;23926;53.222;6.354;2023-02-28T06:38:09;103006.00;;;7.20
38114;BMP180;23926;53.222;6.354;2023-02-28T06:40:35;103030.00;;;7.10
38114;BMP180;23926;53.222;6.354;2023-02-28T06:43:01;103021.00;;;7.20
38114;BMP180;23926;53.222;6.354;2023-02-28T06:45:27;103029.00;;;7.20
38114;BMP180;23926;53.222;6.354;2023-02-28T06:47:52;103024.00;;;7.20
38114;BMP180;23926;53.222;6.354;2023-02-28T06:50:18;103031.00;;;7.30
38114;BMP180;23926;53.222;6.354;2023-02-28T06:52:44;103045.00;;;7.30
38114;BMP180;23926;53.222;6.354;2023-02-28T06:55:10;103047.00;;;7.40
38114;BMP180;23926;53.222;6.354;2023-02-28T06:57:36;103039.00;;;7.40
38114;BMP180;23926;53.222;6.354;2023-02-28T07:00:06;103054.00;;;7.40
38114;BMP180;23926;53.222;6.354;2023-02-28T07:02:33;103062.00;;;7.30
38114;BMP180;23926;53.222;6.354;2023-02-28T07:04:58;103044.00;;;7.20
38114;BMP180;23926;53.222;6.354;2023-02-28T07:07:23;103046.00;;;7.20
38114;BMP180;23926;53.222;6.354;2023-02-28T07:09:49;103063.00;;;7.20
38114;BMP180;23926;53.222;6.354;2023-02-28T07:12:14;103039.00;;;7.20
38114;BMP180;23926;53.222;6.354;2023-02-28T07:14:40;103055.00;;;7.20
38114;BMP180;23926;53.222;6.354;2023-02-28T07:17:09;103075.00;;;7.10
38114;BMP180;23926;53.222;6.354;2023-02-28T07:19:37;103066.00;;;7.10
38114;BMP180;23926;53.222;6.354;2023-02-28T07:22:03;103073.00;;;7.10
38114;BMP180;23926;53.222;6.354;2023-02-28T07:24:29;103084.00;;;7.20
38114;BMP180;23926;53.222;6.354;2023-02-28T07:26:54;103079.00;;;7.20
38114;BMP180;23926;53.222;6.354;2023-02-28T07:29:20;103077.00;;;7.30
38114;BMP180;23926;53.222;6.354;2023-02-28T07:31:45;103074.00;;;7.20
38114;BMP180;23926;53.222;6.354;2023-02-28T07:34:12;103076.00;;;7.10
38114;BMP180;23926;53.222;6.354;2023-02-28T07:36:37;103069.00;;;7.10
38114;BMP180;23926;53.222;6.354;2023-02-28T07:39:03;103078.00;;;7.00
38114;BMP180;23926;53.222;6.354;2023-02-28T07:41:30;103079.00;;;7.00
38114;BMP180;23926;53.222;6.354;2023-02-28T07:43:59;103083.00;;;7.00
38114;BMP180;23926;53.222;6.354;2023-02-28T07:46:25;103081.00;;;7.10
38114;BMP180;23926;53.222;6.354;2023-02-28T07:48:51;103077.00;;;7.10
38114;BMP180;23926;53.222;6.354;2023-02-28T07:51:16;103070.00;;;7.20
38114;BMP180;23926;53.222;6.354;2023-02-28T07:53:42;103091.00;;;7.20
38114;BMP180;23926;53.222;6.354;2023-02-28T07:56:07;103087.00;;;7.30
38114;BMP180;23926;53.222;6.354;2023-02-28T07:58:35;103074.00;;;7.20
38114;BMP180;23926;53.222;6.354;2023-02-28T08:01:09;103085.00;;;7.30
38114;BMP180;23926;53.222;6.354;2023-02-28T08:03:36;103093.00;;;7.20
38114;BMP180;23926;53.222;6.354;2023-02-28T08:06:13;103084.00;;;7.30
38114;BMP180;23926;53.222;6.354;2023-02-28T08:08:39;103091.00;;;7.30
38114;BMP180;23926;53.222;6.354;2023-02-28T08:11:05;103078.00;;;7.30
38114;BMP180;23926;53.222;6.354;2023-02-28T08:13:30;103094.00;;;7.30
38114;BMP180;23926;53.222;6.354;2023-02-28T08:15:56;103085.00;;;7.30
38114;BMP180;23926;53.222;6.354;2023-02-28T08:18:22;103087.00;;;7.30
38114;BMP180;23926;53.222;6.354;2023-02-28T08:20:48;103083.00;;;7.20
38114;BMP180;23926;53.222;6.354;2023-02-28T08:23:14;103075.00;;;7.20
38114;BMP180;23926;53.222;6.354;2023-02-28T08:25:39;103083.00;;;7.30
38114;BMP180;23926;53.222;6.354;2023-02-28T08:28:05;103095.00;;;7.10
38114;BMP180;23926;53.222;6.354;2023-02-28T08:30:30;103083.00;;;7.10
38114;BMP180;23926;53.222;6.354;2023-02-28T08:32:56;103088.00;;;7.10
38114;BMP180;23926;53.222;6.354;2023-02-28T08:35:21;103081.00;;;7.10
38114;BMP180;23926;53.222;6.354;2023-02-28T08:37:48;103091.00;;;7.10
38114;BMP180;23926;53.222;6.354;2023-02-28T08:40:14;103083.00;;;7.30
38114;BMP180;23926;53.222;6.354;2023-02-28T08:42:44;103085.00;;;7.60
38114;BMP180;23926;53.222;6.354;2023-02-28T08:45:10;103090.00;;;7.50
38114;BMP180;23926;53.222;6.354;2023-02-28T08:47:35;103088.00;;;7.40
38114;BMP180;23926;53.222;6.354;2023-02-28T08:50:01;103095.00;;;7.50
38114;BMP180;23926;53.222;6.354;2023-02-28T08:52:26;103094.00;;;7.60
38114;BMP180;23926;53.222;6.354;2023-02-28T08:54:52;103085.00;;;7.60
38114;BMP180;23926;53.222;6.354;2023-02-28T08:57:17;103085.00;;;7.70
38114;BMP180;23926;53.222;6.354;2023-02-28T08:59:43;103103.00;;;7.90
38114;BMP180;23926;53.222;6.354;2023-02-28T09:02:11;103118.00;;;8.10
38114;BMP180;23926;53.222;6.354;2023-02-28T09:04:37;103110.00;;;8.40
38114;BMP180;23926;53.222;6.354;2023-02-28T09:07:02;103097.00;;;8.70
38114;BMP180;23926;53.222;6.354;2023-02-28T09:09:28;103094.00;;;8.80
38114;BMP180;23926;53.222;6.354;2023-02-28T09:11:55;103104.00;;;8.90
38114;BMP180;23926;53.222;6.354;2023-02-28T09:14:21;103127.00;;;9.10
38114;BMP180;23926;53.222;6.354;2023-02-28T09:16:46;103111.00;;;9.00
38114;BMP180;23926;53.222;6.354;2023-02-28T09:19:12;103104.00;;;9.10
38114;BMP180;23926;53.222;6.354;2023-02-28T09:21:38;103111.00;;;9.10
38114;BMP180;23926;53.222;6.354;2023-02-28T09:24:03;103113.00;;;9.30
38114;BMP180;23926;53.222;6.354;2023-02-28T09:26:29;103127.00;;;9.60
38114;BMP180;23926;53.222;6.354;2023-02-28T09:28:55;103103.00;;;9.40
38114;BMP180;23926;53.222;6.354;2023-02-28T09:31:23;103110.00;;;9.40
38114;BMP180;23926;53.222;6.354;2023-02-28T09:33:50;103115.00;;;9.40
38114;BMP180;23926;53.222;6.354;2023-02-28T09:36:17;103114.00;;;9.30
38114;BMP180;23926;53.222;6.354;2023-02-28T09:38:42;103110.00;;;9.30
38114;BMP180;23926;53.222;6.354;2023-02-28T09:41:15;103102.00;;;9.50
38114;BMP180;23926;53.222;6.354;2023-02-28T09:43:45;103101.00;;;9.40
38114;BMP180;23926;53.222;6.354;2023-02-28T09:46:18;103109.00;;;9.40
38114;BMP180;23926;53.222;6.354;2023-02-28T09:48:48;103105.00;;;9.10
38114;BMP180;23926;53.222;6.354;2023-02-28T09:51:33;103088.00;;;8.90
38114;BMP180;23926;53.222;6.354;2023-02-28T09:54:02;103088.00;;;9.00
38114;BMP180;23926;53.222;6.354;2023-02-28T09:56:36;103108.00;;;8.80
38114;BMP180;23926;53.222;6.354;2023-02-28T10:06:49;103116.00;;;8.60
38114;BMP180;23926;53.222;6.354;2023-02-28T10:09:21;103121.00;;;8.60
38114;BMP180;23926;53.222;6.354;2023-02-28T10:11:50;103116.00;;;8.60
38114;BMP180;23926;53.222;6.354;2023-02-28T10:14:26;103128.00;;;8.60
38114;BMP180;23926;53.222;6.354;2023-02-28T10:17:34;103112.00;;;8.60
38114;BMP180;23926;53.222;6.354;2023-02-28T10:22:29;103107.00;;;8.50
38114;BMP180;23926;53.222;6.354;2023-02-28T10:24:58;103105.00;;;8.60
38114;BMP180;23926;53.222;6.354;2023-02-28T10:27:31;103112.00;;;8.70
38114;BMP180;23926;53.222;6.354;2023-02-28T10:29:59;103114.00;;;8.80
38114;BMP180;23926;53.222;6.354;2023-02-28T10:32:36;103107.00;;;8.90
38114;BMP180;23926;53.222;6.354;2023-02-28T10:35:14;103121.00;;;8.80
38114;BMP180;23926;53.222;6.354;2023-02-28T10:37:47;103121.00;;;8.90
38114;BMP180;23926;53.222;6.354;2023-02-28T10:40:34;103125.00;;;8.70
38114;BMP180;23926;53.222;6.354;2023-02-28T10:43:00;103117.00;;;8.80
38114;BMP180;23926;53.222;6.354;2023-02-28T10:45:30;103120.00;;;8.70
38114;BMP180;23926;53.222;6.354;2023-02-28T10:48:27;103125.00;;;8.80
38114;BMP180;23926;53.222;6.354;2023-02-28T10:51:00;103100.00;;;9.00
38114;BMP180;23926;53.222;6.354;2023-02-28T10:53:45;103115.00;;;9.00
38114;BMP180;23926;53.222;6.354;2023-02-28T10:56:21;103117.00;;;8.90
38114;BMP180;23926;53.222;6.354;2023-02-28T11:01:44;103099.00;;;9.00
38114;BMP180;23926;53.222;6.354;2023-02-28T11:07:21;103112.00;;;9.00
38114;BMP180;23926;53.222;6.354;2023-02-28T11:09:54;103099.00;;;8.90
38114;BMP180;23926;53.222;6.354;2023-02-28T11:12:37;103090.00;;;8.90
38114;BMP180;23926;53.222;6.354;2023-02-28T11:15:21;103086.00;;;8.80
38114;BMP180;23926;53.222;6.354;2023-02-28T11:20:50;103096.00;;;8.90
38114;BMP180;23926;53.222;6.354;2023-02-28T11:23:17;103093.00;;;8.80
38114;BMP180;23926;53.222;6.354;2023-02-28T11:25:51;103094.00;;;8.90
38114;BMP180;23926;53.222;6.354;2023-02-28T11:28:32;103100.00;;;9.00
38114;BMP180;23926;53.222;6.354;2023-02-28T11:38:37;103083.00;;;9.40
38114;BMP180;23926;53.222;6.354;2023-02-28T11:41:16;103091.00;;;9.30
38114;BMP180;23926;53.222;6.354;2023-02-28T11:43:57;103105.00;;;9.50
38114;BMP180;23926;53.222;6.354;2023-02-28T11:46:40;103076.00;;;9.40
38114;BMP180;23926;53.222;6.354;2023-02-28T11:52:00;103089.00;;;9.10
38114;BMP180;23926;53.222;6.354;2023-02-28T11:57:08;103085.00;;;9.40
38114;BMP180;23926;53.222;6.354;2023-02-28T12:00:25;103093.00;;;9.60
38114;BMP180;23926;53.222;6.354;2023-02-28T12:06:31;103090.00;;;9.80
38114;BMP180;23926;53.222;6.354;2023-02-28T12:14:57;103085.00;;;9.70
38114;BMP180;23926;53.222;6.354;2023-02-28T12:23:01;103066.00;;;10.00
38114;BMP180;23926;53.222;6.354;2023-02-28T12:27:59;103073.00;;;10.20
38114;BMP180;23926;53.222;6.354;2023-02-28T12:30:34;103071.00;;;10.10
38114;BMP180;23926;53.222;6.354;2023-02-28T12:35:40;103072.00;;;10.00
38114;BMP180;23926;53.222;6.354;2023-02-28T12:38:10;103062.00;;;10.00
38114;BMP180;23926;53.222;6.354;2023-02-28T12:41:03;103056.00;;;9.80
38114;BMP180;23926;53.222;6.354;2023-02-28T12:43:34;103062.00;;;9.90
38114;BMP180;23926;53.222;6.354;2023-02-28T12:47:05;103069.00;;;9.70
38114;BMP180;23926;53.222;6.354;2023-02-28T12:49:58;103065.00;;;9.70
38114;BMP180;23926;53.222;6.354;2023-02-28T12:52:35;103045.00;;;9.80
38114;BMP180;23926;53.222;6.354;2023-02-28T12:55:16;103046.00;;;9.80
38114;BMP180;23926;53.222;6.354;2023-02-28T12:57:52;103051.00;;;9.90
38114;BMP180;23926;53.222;6.354;2023-02-28T13:00:25;103034.00;;;9.80
38114;BMP180;23926;53.222;6.354;2023-02-28T13:05:55;103040.00;;;9.80
38114;BMP180;23926;53.222;6.354;2023-02-28T13:10:53;103031.00;;;10.00
38114;BMP180;23926;53.222;6.354;2023-02-28T13:13:26;103021.00;;;10.10
38114;BMP180;23926;53.222;6.354;2023-02-28T13:18:43;103017.00;;;10.20
38114;BMP180;23926;53.222;6.354;2023-02-28T13:21:32;103020.00;;;10.10
38114;BMP180;23926;53.222;6.354;2023-02-28T13:24:55;102968.00;;;9.90
38114;BMP180;23926;53.222;6.354;2023-02-28T13:27:47;102984.00;;;9.90
38114;BMP180;23926;53.222;6.354;2023-02-28T13:34:12;103014.00;;;10.00
38114;BMP180;23926;53.222;6.354;2023-02-28T13:40:35;103008.00;;;9.70
38114;BMP180;23926;53.222;6.354;2023-02-28T13:52:23;102991.00;;;9.40
38114;BMP180;23926;53.222;6.354;2023-02-28T13:56:23;103006.00;;;9.30
38114;BMP180;23926;53.222;6.354;2023-02-28T14:05:17;102994.00;;;9.40
38114;BMP180;23926;53.222;6.354;2023-02-28T14:07:54;103023.00;;;9.50
38114;BMP180;23926;53.222;6.354;2023-02-28T14:10:40;102988.00;;;9.50
38114;BMP180;23926;53.222;6.354;2023-02-28T14:13:17;102978.00;;;9.70
38114;BMP180;23926;53.222;6.354;2023-02-28T14:16:00;103015.00;;;9.80
38114;BMP180;23926;53.222;6.354;2023-02-28T14:18:34;103013.00;;;10.00
38114;BMP180;23926;53.222;6.354;2023-02-28T14:24:10;103012.00;;;10.30
38114;BMP180;23926;53.222;6.354;2023-02-28T14:29:59;103007.00;;;10.60
38114;BMP180;23926;53.222;6.354;2023-02-28T14:32:53;103016.00;;;10.60
38114;BMP180;23926;53.222;6.354;2023-02-28T14:36:13;103013.00;;;10.50
38114;BMP180;23926;53.222;6.354;2023-02-28T14:38:36;102974.00;;;10.30
38114;BMP180;23926;53.222;6.354;2023-02-28T14:41:45;102968.00;;;10.10
38114;BMP180;23926;53.222;6.354;2023-02-28T14:44:20;103009.00;;;10.10
38114;BMP180;23926;53.222;6.354;2023-02-28T14:46:57;103007.00;;;9.80
38114;BMP180;23926;53.222;6.354;2023-02-28T14:49:44;102971.00;;;9.90
38114;BMP180;23926;53.222;6.354;2023-02-28T14:52:28;102962.00;;;9.80
38114;BMP180;23926;53.222;6.354;2023-02-28T14:55:16;102966.00;;;9.90
38114;BMP180;23926;53.222;6.354;2023-02-28T14:57:54;103005.00;;;10.00
38114;BMP180;23926;53.222;6.354;2023-02-28T15:01:01;103018.00;;;10.00
38114;BMP180;23926;53.222;6.354;2023-02-28T15:03:48;102964.00;;;10.00
38114;BMP180;23926;53.222;6.354;2023-02-28T15:06:29;102973.00;;;10.00
38114;BMP180;23926;53.222;6.354;2023-02-28T15:09:20;102972.00;;;10.00
38114;BMP180;23926;53.222;6.354;2023-02-28T15:12:07;102989.00;;;10.10
38114;BMP180;23926;53.222;6.354;2023-02-28T15:15:05;102965.00;;;10.20
38114;BMP180;23926;53.222;6.354;2023-02-28T15:17:56;102980.00;;;10.30
38114;BMP180;23926;53.222;6.354;2023-02-28T15:20:26;103011.00;;;10.20
38114;BMP180;23926;53.222;6.354;2023-02-28T15:22:55;102983.00;;;10.00
38114;BMP180;23926;53.222;6.354;2023-02-28T15:25:25;102948.00;;;9.90
38114;BMP180;23926;53.222;6.354;2023-02-28T15:27:55;102997.00;;;9.80
38114;BMP180;23926;53.222;6.354;2023-02-28T15:30:30;102958.00;;;9.80
38114;BMP180;23926;53.222;6.354;2023-02-28T15:33:22;102989.00;;;9.80
38114;BMP180;23926;53.222;6.354;2023-02-28T15:35:50;102983.00;;;9.70
38114;BMP180;23926;53.222;6.354;2023-02-28T15:38:24;102983.00;;;9.60
38114;BMP180;23926;53.222;6.354;2023-02-28T15:41:04;102966.00;;;9.50
38114;BMP180;23926;53.222;6.354;2023-02-28T15:43:37;102978.00;;;9.50
38114;BMP180;23926;53.222;6.354;2023-02-28T15:46:12;102985.00;;;9.50
38114;BMP180;23926;53.222;6.354;2023-02-28T15:48:52;102995.00;;;9.50
38114;BMP180;23926;53.222;6.354;2023-02-28T15:51:23;102983.00;;;9.60
38114;BMP180;23926;53.222;6.354;2023-02-28T15:53:56;102966.00;;;9.80
38114;BMP180;23926;53.222;6.354;2023-02-28T15:56:30;102983.00;;;9.90
38114;BMP180;23926;53.222;6.354;2023-02-28T15:59:05;102981.00;;;9.90
38114;BMP180;23926;53.222;6.354;2023-02-28T16:01:39;102984.00;;;9.90
38114;BMP180;23926;53.222;6.354;2023-02-28T16:04:24;102949.00;;;9.80
38114;BMP180;23926;53.222;6.354;2023-02-28T16:07:05;102996.00;;;9.70
38114;BMP180;23926;53.222;6.354;2023-02-28T16:09:40;102995.00;;;9.50
38114;BMP180;23926;53.222;6.354;2023-02-28T16:12:10;103001.00;;;9.50
38114;BMP180;23926;53.222;6.354;2023-02-28T16:14:40;102985.00;;;9.40
38114;BMP180;23926;53.222;6.354;2023-02-28T16:17:41;102984.00;;;9.30
38114;BMP180;23926;53.222;6.354;2023-02-28T16:22:53;102947.00;;;9.10
38114;BMP180;23926;53.222;6.354;2023-02-28T16:25:26;102985.00;;;9.10
38114;BMP180;23926;53.222;6.354;2023-02-28T16:28:00;102978.00;;;9.00
38114;BMP180;23926;53.222;6.354;2023-02-28T16:30:38;102966.00;;;8.90
38114;BMP180;23926;53.222;6.354;2023-02-28T16:33:25;102937.00;;;8.70
38114;BMP180;23926;53.222;6.354;2023-02-28T16:35:54;102978.00;;;8.60
38114;BMP180;23926;53.222;6.354;2023-02-28T16:38:52;102999.00;;;8.50
38114;BMP180;23926;53.222;6.354;2023-02-28T16:41:44;102961.00;;;8.50
38114;BMP180;23926;53.222;6.354;2023-02-28T16:44:33;102998.00;;;8.40
38114;BMP180;23926;53.222;6.354;2023-02-28T16:47:11;102956.00;;;8.30
38114;BMP180;23926;53.222;6.354;2023-02-28T16:49:55;102953.00;;;8.20
38114;BMP180;23926;53.222;6.354;2023-02-28T16:52:31;102953.00;;;8.10
38114;BMP180;23926;53.222;6.354;2023-02-28T16:55:09;103017.00;;;8.10
38114;BMP180;23926;53.222;6.354;2023-02-28T16:57:44;102966.00;;;7.90